sensor_id;sensor_type;location;lat;lon;timestamp;pressure;altitude;pressure_sealevel;temperature;humidity
2188;BME280;1100;52.014;8.540;2024-01-15T00:01:13;98483.59;;;-1.23;100.00
2188;BME280;1100;52.014;8.540;2024-01-15T00:03:38;98477.00;;;-1.26;100.00
2188;BME280;1100;52.014;8.540;2024-01-15T00:06:04;98468.03;;;-1.26;100.00
2188;BME280;1100;52.014;8.540;2024-01-15T00:08:29;98462.56;;;-1.26;100.00
2188;BME280;1100;52.014;8.540;2024-01-15T00:10:55;98473.47;;;-1.26;100.00
2188;BME280;1100;52.014;8.540;2024-01-15T00:13:20;98463.38;;;-1.26;100.00
2188;BME280;1100;52.014;8.540;2024-01-15T00:15:45;98464.91;;;-1.24;100.00
2188;BME280;1100;52.014;8.540;2024-01-15T00:18:11;98462.16;;;-1.21;100.00
2188;BME280;1100;52.014;8.540;2024-01-15T00:20:36;98459.44;;;-1.21;100.00
2188;BME280;1100;52.014;8.540;2024-01-15T00:23:01;98453.59;;;-1.23;100.00
2188;BME280;1100;52.014;8.540;2024-01-15T00:25:27;98458.66;;;-1.21;100.00
2188;BME280;1100;52.014;8.540;2024-01-15T00:27:52;98455.53;;;-1.20;100.00
2188;BME280;1100;52.014;8.540;2024-01-15T00:30:17;98456.28;;;-1.16;100.00
2188;BME280;1100;52.014;8.540;2024-01-15T00:32:42;98470.28;;;-1.14;100.00
2188;BME280;1100;52.014;8.540;2024-01-15T00:35:08;98471.84;;;-1.13;100.00
2188;BME280;1100;52.014;8.540;2024-01-15T00:37:33;98460.13;;;-1.09;100.00
2188;BME280;1100;52.014;8.540;2024-01-15T00:39:59;98470.25;;;-1.06;100.00
2188;BME280;1100;52.014;8.540;2024-01-15T00:42:24;98465.56;;;-1.06;100.00
2188;BME280;1100;52.014;8.540;2024-01-15T00:44:49;98458.94;;;-1.05;100.00
2188;BME280;1100;52.014;8.540;2024-01-15T00:47:14;98465.16;;;-1.01;100.00
2188;BME280;1100;52.014;8.540;2024-01-15T00:49:40;98461.63;;;-1.01;100.00
2188;BME280;1100;52.014;8.540;2024-01-15T00:52:05;98462.81;;;-1.02;100.00
2188;BME280;1100;52.014;8.540;2024-01-15T00:54:30;98453.06;;;-1.03;100.00
2188;BME280;1100;52.014;8.540;2024-01-15T00:56:56;98455.81;;;-1.03;100.00
2188;BME280;1100;52.014;8.540;2024-01-15T00:59:21;98451.53;;;-1.04;100.00
2188;BME280;1100;52.014;8.540;2024-01-15T01:01:46;98464.38;;;-1.01;100.00
2188;BME280;1100;52.014;8.540;2024-01-15T01:04:12;98456.97;;;-1.01;100.00
2188;BME280;1100;52.014;8.540;2024-01-15T01:06:38;98451.53;;;-1.01;100.00
2188;BME280;1100;52.014;8.540;2024-01-15T01:09:03;98446.81;;;-1.00;100.00
2188;BME280;1100;52.014;8.540;2024-01-15T01:11:28;98460.47;;;-1.00;100.00
2188;BME280;1100;52.014;8.540;2024-01-15T01:13:54;98457.72;;;-1.00;100.00
2188;BME280;1100;52.014;8.540;2024-01-15T01:16:21;98451.13;;;-1.03;100.00
2188;BME280;1100;52.014;8.540;2024-01-15T01:18:46;98448.41;;;-1.03;100.00
2188;BME280;1100;52.014;8.540;2024-01-15T01:21:12;98454.25;;;-1.04;100.00
2188;BME280;1100;52.014;8.540;2024-01-15T01:23:37;98450.75;;;-1.05;100.00
2188;BME280;1100;52.014;8.540;2024-01-15T01:26:02;98449.59;;;-1.04;100.00
2188;BME280;1100;52.014;8.540;2024-01-15T01:28:28;98450.34;;;-1.03;100.00
2188;BME280;1100;52.014;8.540;2024-01-15T01:30:53;98462.81;;;-1.02;100.00
2188;BME280;1100;52.014;8.540;2024-01-15T01:33:18;98456.59;;;-1.03;100.00
2188;BME280;1100;52.014;8.540;2024-01-15T01:35:44;98450.72;;;-1.01;100.00
2188;BME280;1100;52.014;8.540;2024-01-15T01:38:10;98436.72;;;-1.03;100.00
2188;BME280;1100;52.014;8.540;2024-01-15T01:40:35;98443.34;;;-1.04;100.00
2188;BME280;1100;52.014;8.540;2024-01-15T01:43:03;98457.00;;;-1.04;100.00
2188;BME280;1100;52.014;8.540;2024-01-15T01:45:28;98442.97;;;-1.06;100.00
2188;BME280;1100;52.014;8.540;2024-01-15T01:47:53;98447.66;;;-1.07;100.00
2188;BME280;1100;52.014;8.540;2024-01-15T01:50:19;98435.97;;;-1.07;100.00
2188;BME280;1100;52.014;8.540;2024-01-15T01:52:44;98437.16;;;-1.08;100.00
2188;BME280;1100;52.014;8.540;2024-01-15T01:55:10;98422.72;;;-1.09;100.00
2188;BME280;1100;52.014;8.540;2024-01-15T01:57:36;98423.53;;;-1.12;100.00
2188;BME280;1100;52.014;8.540;2024-01-15T02:00:03;98422.75;;;-1.13;100.00
2188;BME280;1100;52.014;8.540;2024-01-15T02:02:30;98416.94;;;-1.15;100.00
2188;BME280;1100;52.014;8.540;2024-01-15T02:04:55;98427.44;;;-1.13;100.00
2188;BME280;1100;52.014;8.540;2024-01-15T02:07:21;98414.22;;;-1.15;100.00
2188;BME280;1100;52.014;8.540;2024-01-15T02:09:46;98420.41;;;-1.14;100.00
2188;BME280;1100;52.014;8.540;2024-01-15T02:12:12;98422.00;;;-1.13;100.00
2188;BME280;1100;52.014;8.540;2024-01-15T02:14:39;98410.69;;;-1.11;100.00
2188;BME280;1100;52.014;8.540;2024-01-15T02:17:04;98419.22;;;-1.09;100.00
2188;BME280;1100;52.014;8.540;2024-01-15T02:19:29;98421.59;;;-1.11;100.00
2188;BME280;1100;52.014;8.540;2024-01-15T02:21:55;98401.72;;;-1.12;100.00
2188;BME280;1100;52.014;8.540;2024-01-15T02:24:20;98417.69;;;-1.10;100.00
2188;BME280;1100;52.014;8.540;2024-01-15T02:26:46;98419.22;;;-1.09;100.00
2188;BME280;1100;52.014;8.540;2024-01-15T02:29:12;98412.63;;;-1.12;100.00
2188;BME280;1100;52.014;8.540;2024-01-15T02:31:37;98427.81;;;-1.11;100.00
2188;BME280;1100;52.014;8.540;2024-01-15T02:34:03;98422.34;;;-1.11;100.00
2188;BME280;1100;52.014;8.540;2024-01-15T02:36:28;98425.06;;;-1.11;100.00
2188;BME280;1100;52.014;8.540;2024-01-15T02:38:54;98426.66;;;-1.10;100.00
2188;BME280;1100;52.014;8.540;2024-01-15T02:41:19;98432.84;;;-1.09;100.00
2188;BME280;1100;52.014;8.540;2024-01-15T02:43:44;98417.28;;;-1.13;100.00
2188;BME280;1100;52.014;8.540;2024-01-15T02:46:10;98420.81;;;-1.12;100.00
2188;BME280;1100;52.014;8.540;2024-01-15T02:48:35;98418.88;;;-1.11;100.00
2188;BME280;1100;52.014;8.540;2024-01-15T02:51:01;98411.84;;;-1.13;100.00
2188;BME280;1100;52.014;8.540;2024-01-15T02:53:27;98424.31;;;-1.11;100.00
2188;BME280;1100;52.014;8.540;2024-01-15T02:55:52;98423.53;;;-1.12;100.00
2188;BME280;1100;52.014;8.540;2024-01-15T02:58:17;98427.41;;;-1.09;100.00
2188;BME280;1100;52.014;8.540;2024-01-15T03:00:43;98423.13;;;-1.10;100.00
2188;BME280;1100;52.014;8.540;2024-01-15T03:03:08;98418.06;;;-1.08;100.00
2188;BME280;1100;52.014;8.540;2024-01-15T03:05:34;98418.41;;;-1.06;100.00
2188;BME280;1100;52.014;8.540;2024-01-15T03:07:59;98411.81;;;-1.05;100.00
2188;BME280;1100;52.014;8.540;2024-01-15T03:10:24;98423.88;;;-1.06;100.00
2188;BME280;1100;52.014;8.540;2024-01-15T03:12:50;98420.00;;;-1.05;100.00
2188;BME280;1100;52.014;8.540;2024-01-15T03:15:15;98421.94;;;-1.06;100.00
2188;BME280;1100;52.014;8.540;2024-01-15T03:17:44;98418.81;;;-1.08;100.00
2188;BME280;1100;52.014;8.540;2024-01-15T03:20:10;98413.38;;;-1.08;100.00
2188;BME280;1100;52.014;8.540;2024-01-15T03:22:35;98414.56;;;-1.09;100.00
2188;BME280;1100;52.014;8.540;2024-01-15T03:25:01;98414.56;;;-1.13;100.00
2188;BME280;1100;52.014;8.540;2024-01-15T03:27:26;98420.41;;;-1.14;100.00
2188;BME280;1100;52.014;8.540;2024-01-15T03:29:51;98428.19;;;-1.13;100.00
2188;BME280;1100;52.014;8.540;2024-01-15T03:32:17;98411.47;;;-1.15;100.00
2188;BME280;1100;52.014;8.540;2024-01-15T03:34:42;98412.63;;;-1.16;100.00
2188;BME280;1100;52.014;8.540;2024-01-15T03:37:08;98400.19;;;-1.17;100.00
2188;BME280;1100;52.014;8.540;2024-01-15T03:39:33;98411.09;;;-1.17;100.00
2188;BME280;1100;52.014;8.540;2024-01-15T03:41:58;98404.09;;;-1.18;100.00
2188;BME280;1100;52.014;8.540;2024-01-15T03:44:24;98406.03;;;-1.18;100.00
2188;BME280;1100;52.014;8.540;2024-01-15T03:46:50;98390.81;;;-1.16;100.00
2188;BME280;1100;52.014;8.540;2024-01-15T03:49:15;98400.19;;;-1.17;100.00
2188;BME280;1100;52.014;8.540;2024-01-15T03:51:41;98414.22;;;-1.15;100.00
2188;BME280;1100;52.014;8.540;2024-01-15T03:54:06;98423.94;;;-1.14;100.00
2188;BME280;1100;52.014;8.540;2024-01-15T03:56:31;98421.22;;;-1.14;100.00
2188;BME280;1100;52.014;8.540;2024-01-15T03:58:56;98409.50;;;-1.10;100.00
2188;BME280;1100;52.014;8.540;2024-01-15T04:01:22;98417.69;;;-1.10;100.00
2188;BME280;1100;52.014;8.540;2024-01-15T04:03:47;98412.59;;;-1.08;100.00
2188;BME280;1100;52.014;8.540;2024-01-15T04:06:12;98401.69;;;-1.08;100.00
2188;BME280;1100;52.014;8.540;2024-01-15T04:08:38;98419.19;;;-1.06;100.00
2188;BME280;1100;52.014;8.540;2024-01-15T04:11:03;98418.81;;;-1.04;100.00
2188;BME280;1100;52.014;8.540;2024-01-15T04:13:32;98421.91;;;-1.02;100.00
2188;BME280;1100;52.014;8.540;2024-01-15T04:15:57;98409.03;;;-1.02;100.00
2188;BME280;1100;52.014;8.540;2024-01-15T04:18:22;98412.16;;;-1.03;100.00
2188;BME280;1100;52.014;8.540;2024-01-15T04:20:48;98400.09;;;-1.02;100.00
2188;BME280;1100;52.014;8.540;2024-01-15T04:23:13;98403.19;;;-1.00;100.00
2188;BME280;1100;52.014;8.540;2024-01-15T04:25:38;98400.03;;;-0.98;100.00
2188;BME280;1100;52.014;8.540;2024-01-15T04:28:07;98400.84;;;-1.02;100.00
2188;BME280;1100;52.014;8.540;2024-01-15T04:30:33;98397.38;;;-1.02;100.00
2188;BME280;1100;52.014;8.540;2024-01-15T04:32:58;98389.19;;;-1.02;100.00
2188;BME280;1100;52.014;8.540;2024-01-15T04:35:23;98398.13;;;-1.02;100.00
2188;BME280;1100;52.014;8.540;2024-01-15T04:37:49;98391.53;;;-1.04;100.00
2188;BME280;1100;52.014;8.540;2024-01-15T04:40:14;98387.25;;;-1.05;100.00
2188;BME280;1100;52.014;8.540;2024-01-15T04:42:39;98391.53;;;-1.04;100.00
2188;BME280;1100;52.014;8.540;2024-01-15T04:45:05;98394.25;;;-1.04;100.00
2188;BME280;1100;52.014;8.540;2024-01-15T04:47:30;98391.53;;;-1.04;100.00
2188;BME280;1100;52.014;8.540;2024-01-15T04:49:55;98386.06;;;-1.04;100.00
2188;BME280;1100;52.014;8.540;2024-01-15T04:52:21;98384.88;;;-1.03;100.00
2188;BME280;1100;52.014;8.540;2024-01-15T04:54:46;98387.25;;;-1.05;100.00
2188;BME280;1100;52.014;8.540;2024-01-15T04:57:11;98388.00;;;-1.05;100.00
2188;BME280;1100;52.014;8.540;2024-01-15T04:59:37;98384.16;;;-1.07;100.00
2188;BME280;1100;52.014;8.540;2024-01-15T05:02:02;98378.31;;;-1.09;100.00
2188;BME280;1100;52.014;8.540;2024-01-15T05:04:28;98361.59;;;-1.11;100.00
2188;BME280;1100;52.014;8.540;2024-01-15T05:06:53;98374.44;;;-1.12;100.00
2188;BME280;1100;52.014;8.540;2024-01-15T05:09:19;98365.47;;;-1.13;100.00
2188;BME280;1100;52.014;8.540;2024-01-15T05:11:44;98360.03;;;-1.13;100.00
2188;BME280;1100;52.014;8.540;2024-01-15T05:14:09;98359.66;;;-1.15;100.00
2188;BME280;1100;52.014;8.540;2024-01-15T05:16:35;98356.97;;;-1.18;100.00
2188;BME280;1100;52.014;8.540;2024-01-15T05:19:02;98358.50;;;-1.17;100.00
2188;BME280;1100;52.014;8.540;2024-01-15T05:21:28;98362.03;;;-1.20;100.00
2188;BME280;1100;52.014;8.540;2024-01-15T05:23:53;98364.75;;;-1.20;100.00
2188;BME280;1100;52.014;8.540;2024-01-15T05:26:18;98381.13;;;-1.20;100.00
2188;BME280;1100;52.014;8.540;2024-01-15T05:28:44;98360.88;;;-1.23;100.00
2188;BME280;1100;52.014;8.540;2024-01-15T05:31:09;98361.69;;;-1.22;100.00
2188;BME280;1100;52.014;8.540;2024-01-15T05:33:35;98361.28;;;-1.24;100.00
2188;BME280;1100;52.014;8.540;2024-01-15T05:36:01;98369.84;;;-1.22;100.00
2188;BME280;1100;52.014;8.540;2024-01-15T05:38:27;98357.38;;;-1.23;100.00
2188;BME280;1100;52.014;8.540;2024-01-15T05:40:53;98363.63;;;-1.23;100.00
2188;BME280;1100;52.014;8.540;2024-01-15T05:43:18;98355.81;;;-1.21;100.00
2188;BME280;1100;52.014;8.540;2024-01-15T05:45:43;98358.94;;;-1.22;100.00
2188;BME280;1100;52.014;8.540;2024-01-15T05:48:10;98358.56;;;-1.21;100.00
2188;BME280;1100;52.014;8.540;2024-01-15T05:50:38;98357.38;;;-1.20;100.00
2188;BME280;1100;52.014;8.540;2024-01-15T05:53:04;98348.41;;;-1.20;100.00
2188;BME280;1100;52.014;8.540;2024-01-15T05:55:29;98356.19;;;-1.19;100.00
2188;BME280;1100;52.014;8.540;2024-01-15T05:57:55;98351.91;;;-1.20;100.00
2188;BME280;1100;52.014;8.540;2024-01-15T06:00:20;98357.38;;;-1.20;100.00
2188;BME280;1100;52.014;8.540;2024-01-15T06:02:46;98351.91;;;-1.20;100.00
2188;BME280;1100;52.014;8.540;2024-01-15T06:05:11;98365.13;;;-1.18;100.00
2188;BME280;1100;52.014;8.540;2024-01-15T06:07:36;98365.53;;;-1.20;100.00
2188;BME280;1100;52.014;8.540;2024-01-15T06:10:02;98364.34;;;-1.19;100.00
2188;BME280;1100;52.014;8.540;2024-01-15T06:12:28;98351.91;;;-1.20;100.00
2188;BME280;1100;52.014;8.540;2024-01-15T06:14:53;98364.75;;;-1.17;100.00
2188;BME280;1100;52.014;8.540;2024-01-15T06:17:19;98363.19;;;-1.18;100.00
2188;BME280;1100;52.014;8.540;2024-01-15T06:19:44;98358.09;;;-1.16;100.00
2188;BME280;1100;52.014;8.540;2024-01-15T06:22:09;98369.00;;;-1.16;100.00
2188;BME280;1100;52.014;8.540;2024-01-15T06:24:35;98368.25;;;-1.16;100.00
2188;BME280;1100;52.014;8.540;2024-01-15T06:27:00;98370.56;;;-1.15;100.00
2188;BME280;1100;52.014;8.540;2024-01-15T06:29:26;98366.28;;;-1.16;100.00
2188;BME280;1100;52.014;8.540;2024-01-15T06:31:52;98364.34;;;-1.15;100.00
2188;BME280;1100;52.014;8.540;2024-01-15T06:34:19;98374.47;;;-1.16;100.00
2188;BME280;1100;52.014;8.540;2024-01-15T06:36:44;98365.53;;;-1.16;100.00
2188;BME280;1100;52.014;8.540;2024-01-15T06:39:10;98370.97;;;-1.16;100.00
2188;BME280;1100;52.014;8.540;2024-01-15T06:41:35;98358.88;;;-1.15;100.00
2188;BME280;1100;52.014;8.540;2024-01-15T06:44:06;98368.22;;;-1.13;100.00
2188;BME280;1100;52.014;8.540;2024-01-15T06:46:31;98363.16;;;-1.14;100.00
2188;BME280;1100;52.014;8.540;2024-01-15T06:48:57;98362.75;;;-1.13;100.00
2188;BME280;1100;52.014;8.540;2024-01-15T06:51:22;98367.06;;;-1.15;100.00
2188;BME280;1100;52.014;8.540;2024-01-15T06:53:47;98361.28;;;-1.21;100.00
2188;BME280;1100;52.014;8.540;2024-01-15T06:56:13;98370.25;;;-1.24;100.00
2188;BME280;1100;52.014;8.540;2024-01-15T06:58:38;98367.53;;;-1.24;100.00
2188;BME280;1100;52.014;8.540;2024-01-15T07:01:03;98376.47;;;-1.23;100.00
2188;BME280;1100;52.014;8.540;2024-01-15T07:03:29;98382.31;;;-1.25;100.00
2188;BME280;1100;52.014;8.540;2024-01-15T07:05:55;98374.53;;;-1.27;100.00
2188;BME280;1100;52.014;8.540;2024-01-15T07:08:20;98383.13;;;-1.28;100.00
2188;BME280;1100;52.014;8.540;2024-01-15T07:10:45;98385.50;;;-1.30;100.00
2188;BME280;1100;52.014;8.540;2024-01-15T07:13:10;98387.41;;;-1.27;100.00
2188;BME280;1100;52.014;8.540;2024-01-15T07:15:36;98388.97;;;-1.26;100.00
2188;BME280;1100;52.014;8.540;2024-01-15T07:18:01;98376.13;;;-1.26;100.00
2188;BME280;1100;52.014;8.540;2024-01-15T07:20:27;98369.47;;;-1.24;100.00
2188;BME280;1100;52.014;8.540;2024-01-15T07:22:52;98382.31;;;-1.21;100.00
2188;BME280;1100;52.014;8.540;2024-01-15T07:25:17;98375.25;;;-1.19;100.00
2188;BME280;1100;52.014;8.540;2024-01-15T07:27:43;98379.56;;;-1.18;100.00
2188;BME280;1100;52.014;8.540;2024-01-15T07:30:11;98382.28;;;-1.18;100.00
2188;BME280;1100;52.014;8.540;2024-01-15T07:32:36;98372.13;;;-1.17;100.00
2188;BME280;1100;52.014;8.540;2024-01-15T07:35:02;98373.31;;;-1.18;100.00
2188;BME280;1100;52.014;8.540;2024-01-15T07:37:27;98369.81;;;-1.19;100.00
2188;BME280;1100;52.014;8.540;2024-01-15T07:39:53;98376.06;;;-1.22;100.00
2188;BME280;1100;52.014;8.540;2024-01-15T07:42:19;98382.31;;;-1.25;100.00
2188;BME280;1100;52.014;8.540;2024-01-15T07:44:44;98393.22;;;-1.25;100.00
2188;BME280;1100;52.014;8.540;2024-01-15T07:47:10;98383.09;;;-1.24;100.00
2188;BME280;1100;52.014;8.540;2024-01-15T07:49:35;98394.81;;;-1.28;100.00
2188;BME280;1100;52.014;8.540;2024-01-15T07:52:01;98380.00;;;-1.27;100.00
2188;BME280;1100;52.014;8.540;2024-01-15T07:54:26;98386.63;;;-1.28;100.00
2188;BME280;1100;52.014;8.540;2024-01-15T07:56:58;98388.56;;;-1.24;100.00
2188;BME280;1100;52.014;8.540;2024-01-15T07:59:23;98397.13;;;-1.22;100.00
2188;BME280;1100;52.014;8.540;2024-01-15T08:01:50;98397.47;;;-1.20;100.00
2188;BME280;1100;52.014;8.540;2024-01-15T08:04:15;98399.81;;;-1.19;100.00
2188;BME280;1100;52.014;8.540;2024-01-15T08:06:40;98404.09;;;-1.18;100.00
2188;BME280;1100;52.014;8.540;2024-01-15T08:09:06;98402.91;;;-1.17;100.00
2188;BME280;1100;52.014;8.540;2024-01-15T08:11:31;98401.00;;;-1.20;100.00
2188;BME280;1100;52.014;8.540;2024-01-15T08:13:56;98396.72;;;-1.21;100.00
2188;BME280;1100;52.014;8.540;2024-01-15T08:16:22;98401.78;;;-1.23;100.00
2188;BME280;1100;52.014;8.540;2024-01-15T08:18:49;98397.13;;;-1.22;100.00
2188;BME280;1100;52.014;8.540;2024-01-15T08:21:14;98403.34;;;-1.22;100.00
2188;BME280;1100;52.014;8.540;2024-01-15T08:23:40;98388.53;;;-1.21;100.00
2188;BME280;1100;52.014;8.540;2024-01-15T08:26:05;98394.00;;;-1.21;100.00
2188;BME280;1100;52.014;8.540;2024-01-15T08:28:30;98391.28;;;-1.24;100.00
2188;BME280;1100;52.014;8.540;2024-01-15T08:30:56;98394.78;;;-1.24;100.00
2188;BME280;1100;52.014;8.540;2024-01-15T08:33:21;98390.16;;;-1.31;100.00
2188;BME280;1100;52.014;8.540;2024-01-15T08:35:47;98394.06;;;-1.32;100.00
2188;BME280;1100;52.014;8.540;2024-01-15T08:38:13;98398.75;;;-1.32;100.00
2188;BME280;1100;52.014;8.540;2024-01-15T08:40:38;98383.56;;;-1.33;100.00
2188;BME280;1100;52.014;8.540;2024-01-15T08:43:04;98389.78;;;-1.33;100.00
2188;BME280;1100;52.014;8.540;2024-01-15T08:45:31;98388.63;;;-1.32;100.00
2188;BME280;1100;52.014;8.540;2024-01-15T08:47:57;98389.38;;;-1.31;100.00
2188;BME280;1100;52.014;8.540;2024-01-15T08:50:22;98395.63;;;-1.31;100.00
2188;BME280;1100;52.014;8.540;2024-01-15T08:52:47;98394.09;;;-1.35;100.00
2188;BME280;1100;52.014;8.540;2024-01-15T08:55:13;98396.78;;;-1.32;100.00
2188;BME280;1100;52.014;8.540;2024-01-15T08:57:38;98401.88;;;-1.34;100.00
2188;BME280;1100;52.014;8.540;2024-01-15T09:00:04;98392.50;;;-1.33;100.00
2188;BME280;1100;52.014;8.540;2024-01-15T09:02:33;98393.66;;;-1.30;100.00
2188;BME280;1100;52.014;8.540;2024-01-15T09:04:59;98389.75;;;-1.29;100.00
2188;BME280;1100;52.014;8.540;2024-01-15T09:07:24;98392.50;;;-1.29;100.00
2188;BME280;1100;52.014;8.540;2024-01-15T09:09:51;98392.09;;;-1.31;100.00
2188;BME280;1100;52.014;8.540;2024-01-15T09:12:16;98396.78;;;-1.32;100.00
2188;BME280;1100;52.014;8.540;2024-01-15T09:14:43;98396.00;;;-1.29;100.00
2188;BME280;1100;52.014;8.540;2024-01-15T09:17:09;98396.41;;;-1.30;100.00
2188;BME280;1100;52.014;8.540;2024-01-15T09:19:34;98391.75;;;-1.33;100.00
2188;BME280;1100;52.014;8.540;2024-01-15T09:21:59;98402.66;;;-1.33;100.00
2188;BME280;1100;52.014;8.540;2024-01-15T09:24:25;98401.09;;;-1.38;100.00
2188;BME280;1100;52.014;8.540;2024-01-15T09:26:50;98395.28;;;-1.40;100.00
2188;BME280;1100;52.014;8.540;2024-01-15T09:29:15;98387.09;;;-1.40;100.00
2188;BME280;1100;52.014;8.540;2024-01-15T09:31:41;98394.88;;;-1.39;100.00
2188;BME280;1100;52.014;8.540;2024-01-15T09:34:06;98385.53;;;-1.38;100.00
2188;BME280;1100;52.014;8.540;2024-01-15T09:36:32;98388.63;;;-1.35;100.00
2188;BME280;1100;52.014;8.540;2024-01-15T09:38:57;98388.22;;;-1.34;100.00
2188;BME280;1100;52.014;8.540;2024-01-15T09:41:23;98382.78;;;-1.34;100.00
2188;BME280;1100;52.014;8.540;2024-01-15T09:43:48;98389.78;;;-1.33;100.00
2188;BME280;1100;52.014;8.540;2024-01-15T09:46:15;98395.22;;;-1.33;100.00
2188;BME280;1100;52.014;8.540;2024-01-15T09:48:41;98394.06;;;-1.32;100.00
2188;BME280;1100;52.014;8.540;2024-01-15T09:51:07;98388.97;;;-1.26;100.00
2188;BME280;1100;52.014;8.540;2024-01-15T09:53:33;98388.53;;;-1.21;100.00
2188;BME280;1100;52.014;8.540;2024-01-15T09:55:59;98386.97;;;-1.22;100.00
2188;BME280;1100;52.014;8.540;2024-01-15T09:58:25;98401.00;;;-1.20;100.00
2188;BME280;1100;52.014;8.540;2024-01-15T10:00:51;98389.28;;;-1.17;100.00
2188;BME280;1100;52.014;8.540;2024-01-15T10:03:17;98393.94;;;-1.14;100.00
2188;BME280;1100;52.014;8.540;2024-01-15T10:05:43;98387.66;;;-1.07;100.00
2188;BME280;1100;52.014;8.540;2024-01-15T10:08:09;98386.88;;;-1.07;100.00
2188;BME280;1100;52.014;8.540;2024-01-15T10:10:36;98384.56;;;-1.09;100.00
2188;BME280;1100;52.014;8.540;2024-01-15T10:13:01;98386.91;;;-1.11;100.00
2188;BME280;1100;52.014;8.540;2024-01-15T10:15:27;98384.16;;;-1.07;100.00
2188;BME280;1100;52.014;8.540;2024-01-15T10:17:52;98388.41;;;-1.06;100.00
2188;BME280;1100;52.014;8.540;2024-01-15T10:20:18;98388.41;;;-1.06;100.00
2188;BME280;1100;52.014;8.540;2024-01-15T10:22:44;98376.34;;;-1.05;100.00
2188;BME280;1100;52.014;8.540;2024-01-15T10:25:12;98381.03;;;-1.06;100.00
2188;BME280;1100;52.014;8.540;2024-01-15T10:27:38;98381.41;;;-1.07;100.00
2188;BME280;1100;52.014;8.540;2024-01-15T10:30:03;98379.47;;;-1.07;100.00
2188;BME280;1100;52.014;8.540;2024-01-15T10:32:29;98369.72;;;-1.08;100.00
2188;BME280;1100;52.014;8.540;2024-01-15T10:34:54;98372.44;;;-1.04;100.00
2188;BME280;1100;52.014;8.540;2024-01-15T10:37:20;98373.16;;;-1.00;100.00
2188;BME280;1100;52.014;8.540;2024-01-15T10:39:46;98369.63;;;-0.97;100.00
2188;BME280;1100;52.014;8.540;2024-01-15T10:42:11;98369.22;;;-0.95;100.00
2188;BME280;1100;52.014;8.540;2024-01-15T10:44:37;98373.47;;;-0.91;100.00
2188;BME280;1100;52.014;8.540;2024-01-15T10:47:02;98371.13;;;-0.89;100.00
2188;BME280;1100;52.014;8.540;2024-01-15T10:49:28;98368.75;;;-0.83;100.00
2188;BME280;1100;52.014;8.540;2024-01-15T10:51:54;98364.06;;;-0.82;100.00
2188;BME280;1100;52.014;8.540;2024-01-15T10:54:20;98360.94;;;-0.81;100.00
2188;BME280;1100;52.014;8.540;2024-01-15T10:56:49;98370.72;;;-0.83;100.00
2188;BME280;1100;52.014;8.540;2024-01-15T10:59:15;98355.91;;;-0.86;100.00
2188;BME280;1100;52.014;8.540;2024-01-15T11:01:42;98357.81;;;-0.83;100.00
2188;BME280;1100;52.014;8.540;2024-01-15T11:04:08;98355.50;;;-0.84;100.00
2188;BME280;1100;52.014;8.540;2024-01-15T11:06:45;98348.47;;;-0.82;100.00
2188;BME280;1100;52.014;8.540;2024-01-15T11:09:11;98351.63;;;-0.83;100.00
2188;BME280;1100;52.014;8.540;2024-01-15T11:11:44;98364.47;;;-0.84;100.00
2188;BME280;1100;52.014;8.540;2024-01-15T11:14:10;98363.34;;;-0.86;100.00
2188;BME280;1100;52.014;8.540;2024-01-15T11:16:57;98360.91;;;-0.77;100.00
2188;BME280;1100;52.014;8.540;2024-01-15T11:19:24;98350.66;;;-0.66;100.00
2188;BME280;1100;52.014;8.540;2024-01-15T11:21:50;98344.75;;;-0.60;100.00
2188;BME280;1100;52.014;8.540;2024-01-15T11:24:34;98350.66;;;-0.66;100.00
2188;BME280;1100;52.014;8.540;2024-01-15T11:27:00;98355.38;;;-0.70;100.00
2188;BME280;1100;52.014;8.540;2024-01-15T11:29:31;98353.84;;;-0.71;100.00
2188;BME280;1100;52.014;8.540;2024-01-15T11:32:00;98363.19;;;-0.72;100.00
2188;BME280;1100;52.014;8.540;2024-01-15T11:34:55;98361.66;;;-0.77;100.00
2188;BME280;1100;52.014;8.540;2024-01-15T11:37:27;98354.25;;;-0.76;100.00
2188;BME280;1100;52.014;8.540;2024-01-15T11:39:54;98354.25;;;-0.76;100.00
2188;BME280;1100;52.014;8.540;2024-01-15T11:42:20;98346.88;;;-0.76;100.00
2188;BME280;1100;52.014;8.540;2024-01-15T11:44:46;98348.41;;;-0.74;100.00
2188;BME280;1100;52.014;8.540;2024-01-15T11:47:12;98344.47;;;-0.73;100.00
2188;BME280;1100;52.014;8.540;2024-01-15T11:52:26;98345.25;;;-0.73;100.00
2188;BME280;1100;52.014;8.540;2024-01-15T11:57:27;98356.16;;;-0.69;100.00
2188;BME280;1100;52.014;8.540;2024-01-15T11:59:55;98342.91;;;-0.71;100.00
2188;BME280;1100;52.014;8.540;2024-01-15T12:02:20;98347.59;;;-0.71;100.00
2188;BME280;1100;52.014;8.540;2024-01-15T12:04:45;98344.47;;;-0.70;100.00
2188;BME280;1100;52.014;8.540;2024-01-15T12:07:10;98335.09;;;-0.69;100.00
2188;BME280;1100;52.014;8.540;2024-01-15T12:09:43;98330.38;;;-0.65;100.00
2188;BME280;1100;52.014;8.540;2024-01-15T12:12:09;98335.44;;;-0.63;100.00
2188;BME280;1100;52.014;8.540;2024-01-15T12:14:39;98338.97;;;-0.66;100.00
2188;BME280;1100;52.014;8.540;2024-01-15T12:17:05;98342.09;;;-0.68;100.00
2188;BME280;1100;52.014;8.540;2024-01-15T12:19:31;98346.00;;;-0.69;100.00
2188;BME280;1100;52.014;8.540;2024-01-15T12:21:56;98359.22;;;-0.67;100.00
2188;BME280;1100;52.014;8.540;2024-01-15T12:24:21;98352.66;;;-0.70;100.00
2188;BME280;1100;52.014;8.540;2024-01-15T12:26:47;98350.69;;;-0.69;100.00
2188;BME280;1100;52.014;8.540;2024-01-15T12:29:12;98351.44;;;-0.65;100.00
2188;BME280;1100;52.014;8.540;2024-01-15T12:31:37;98361.94;;;-0.64;100.00
2188;BME280;1100;52.014;8.540;2024-01-15T12:34:03;98339.31;;;-0.64;100.00
2188;BME280;1100;52.014;8.540;2024-01-15T12:36:31;98340.88;;;-0.63;100.00
2188;BME280;1100;52.014;8.540;2024-01-15T12:39:00;98353.75;;;-0.64;100.00
2188;BME280;1100;52.014;8.540;2024-01-15T12:41:25;98340.53;;;-0.69;100.00
2188;BME280;1100;52.014;8.540;2024-01-15T12:43:50;98348.72;;;-0.69;100.00
2188;BME280;1100;52.014;8.540;2024-01-15T12:46:16;98349.09;;;-0.67;100.00
2188;BME280;1100;52.014;8.540;2024-01-15T12:48:41;98346.00;;;-0.69;100.00
2188;BME280;1100;52.014;8.540;2024-01-15T12:51:08;98331.94;;;-0.67;100.00
2188;BME280;1100;52.014;8.540;2024-01-15T12:53:33;98333.09;;;-0.65;100.00
2188;BME280;1100;52.014;8.540;2024-01-15T12:55:58;98349.09;;;-0.67;100.00
2188;BME280;1100;52.014;8.540;2024-01-15T12:58:23;98351.84;;;-0.67;100.00
2188;BME280;1100;52.014;8.540;2024-01-15T13:00:49;98339.72;;;-0.66;100.00
2188;BME280;1100;52.014;8.540;2024-01-15T13:03:14;98344.38;;;-0.63;100.00
2188;BME280;1100;52.014;8.540;2024-01-15T13:05:41;98340.47;;;-0.61;100.00
2188;BME280;1100;52.014;8.540;2024-01-15T13:08:06;98342.81;;;-0.60;100.00